sensor_id;sensor_type;location;lat;lon;timestamp;P1;durP1;ratioP1;P2;durP2;ratioP2
14892;SDS011;7538;53.626;9.906;2023-04-03T00:00:04;5.07;;;1.77;;
14892;SDS011;7538;53.626;9.906;2023-04-03T00:02:33;4.93;;;2.00;;
14892;SDS011;7538;53.626;9.906;2023-04-03T00:05:00;3.87;;;1.73;;
14892;SDS011;7538;53.626;9.906;2023-04-03T00:07:28;4.27;;;1.83;;
14892;SDS011;7538;53.626;9.906;2023-04-03T00:09:55;5.40;;;1.60;;
14892;SDS011;7538;53.626;9.906;2023-04-03T00:12:21;4.83;;;2.13;;
14892;SDS011;7538;53.626;9.906;2023-04-03T00:14:48;4.97;;;1.87;;
14892;SDS011;7538;53.626;9.906;2023-04-03T00:17:15;5.23;;;1.80;;
14892;SDS011;7538;53.626;9.906;2023-04-03T00:19:42;4.57;;;2.17;;
14892;SDS011;7538;53.626;9.906;2023-04-03T00:22:09;5.77;;;2.20;;
14892;SDS011;7538;53.626;9.906;2023-04-03T00:24:37;6.80;;;2.03;;
14892;SDS011;7538;53.626;9.906;2023-04-03T00:27:04;6.60;;;2.23;;
14892;SDS011;7538;53.626;9.906;2023-04-03T00:29:30;3.70;;;1.90;;
14892;SDS011;7538;53.626;9.906;2023-04-03T00:31:57;5.47;;;2.10;;
14892;SDS011;7538;53.626;9.906;2023-04-03T00:34:24;5.40;;;1.97;;
14892;SDS011;7538;53.626;9.906;2023-04-03T00:36:51;5.13;;;1.73;;
14892;SDS011;7538;53.626;9.906;2023-04-03T00:39:17;5.53;;;1.83;;
14892;SDS011;7538;53.626;9.906;2023-04-03T00:41:45;3.37;;;1.53;;
14892;SDS011;7538;53.626;9.906;2023-04-03T00:44:19;3.93;;;1.70;;
14892;SDS011;7538;53.626;9.906;2023-04-03T00:46:47;4.53;;;2.37;;
14892;SDS011;7538;53.626;9.906;2023-04-03T00:49:14;3.73;;;2.10;;
14892;SDS011;7538;53.626;9.906;2023-04-03T00:51:41;4.77;;;1.77;;
14892;SDS011;7538;53.626;9.906;2023-04-03T00:54:08;4.23;;;1.90;;
14892;SDS011;7538;53.626;9.906;2023-04-03T00:56:34;3.27;;;1.80;;
14892;SDS011;7538;53.626;9.906;2023-04-03T00:59:05;4.00;;;1.57;;
14892;SDS011;7538;53.626;9.906;2023-04-03T01:01:34;4.37;;;1.93;;
14892;SDS011;7538;53.626;9.906;2023-04-03T01:04:02;5.07;;;2.10;;
14892;SDS011;7538;53.626;9.906;2023-04-03T01:06:31;6.40;;;2.00;;
14892;SDS011;7538;53.626;9.906;2023-04-03T01:09:00;4.90;;;1.60;;
14892;SDS011;7538;53.626;9.906;2023-04-03T01:11:27;3.53;;;1.93;;
14892;SDS011;7538;53.626;9.906;2023-04-03T01:13:54;3.93;;;2.20;;
14892;SDS011;7538;53.626;9.906;2023-04-03T01:16:22;3.37;;;1.67;;
14892;SDS011;7538;53.626;9.906;2023-04-03T01:18:49;6.67;;;2.10;;
14892;SDS011;7538;53.626;9.906;2023-04-03T01:24:26;2.83;;;2.00;;
14892;SDS011;7538;53.626;9.906;2023-04-03T01:26:57;5.93;;;1.53;;
14892;SDS011;7538;53.626;9.906;2023-04-03T01:29:25;4.07;;;1.50;;
14892;SDS011;7538;53.626;9.906;2023-04-03T01:31:53;3.30;;;1.80;;
14892;SDS011;7538;53.626;9.906;2023-04-03T01:34:22;6.57;;;2.30;;
14892;SDS011;7538;53.626;9.906;2023-04-03T01:36:50;5.13;;;2.20;;
14892;SDS011;7538;53.626;9.906;2023-04-03T01:39:17;3.27;;;1.70;;
14892;SDS011;7538;53.626;9.906;2023-04-03T01:41:44;5.20;;;2.10;;
14892;SDS011;7538;53.626;9.906;2023-04-03T01:44:11;5.40;;;2.00;;
14892;SDS011;7538;53.626;9.906;2023-04-03T01:46:38;7.83;;;2.30;;
14892;SDS011;7538;53.626;9.906;2023-04-03T01:49:07;5.00;;;1.70;;
14892;SDS011;7538;53.626;9.906;2023-04-03T01:51:34;5.60;;;1.80;;
14892;SDS011;7538;53.626;9.906;2023-04-03T01:54:01;4.93;;;1.87;;
14892;SDS011;7538;53.626;9.906;2023-04-03T01:56:28;4.90;;;2.20;;
14892;SDS011;7538;53.626;9.906;2023-04-03T01:58:55;4.60;;;2.13;;
14892;SDS011;7538;53.626;9.906;2023-04-03T02:01:22;7.00;;;2.00;;
14892;SDS011;7538;53.626;9.906;2023-04-03T02:03:48;3.57;;;1.70;;
14892;SDS011;7538;53.626;9.906;2023-04-03T02:06:17;6.53;;;2.20;;
14892;SDS011;7538;53.626;9.906;2023-04-03T02:08:43;5.03;;;2.00;;
14892;SDS011;7538;53.626;9.906;2023-04-03T02:11:10;6.57;;;2.30;;
14892;SDS011;7538;53.626;9.906;2023-04-03T02:13:37;5.23;;;2.00;;
14892;SDS011;7538;53.626;9.906;2023-04-03T02:16:07;4.30;;;1.70;;
14892;SDS011;7538;53.626;9.906;2023-04-03T02:18:36;2.93;;;1.87;;
14892;SDS011;7538;53.626;9.906;2023-04-03T02:21:03;4.77;;;1.70;;
14892;SDS011;7538;53.626;9.906;2023-04-03T02:23:31;4.70;;;1.73;;
14892;SDS011;7538;53.626;9.906;2023-04-03T02:26:07;3.83;;;1.47;;
14892;SDS011;7538;53.626;9.906;2023-04-03T02:28:36;5.27;;;2.37;;
14892;SDS011;7538;53.626;9.906;2023-04-03T02:31:04;7.13;;;2.17;;
14892;SDS011;7538;53.626;9.906;2023-04-03T02:33:32;6.20;;;1.93;;
14892;SDS011;7538;53.626;9.906;2023-04-03T02:36:01;3.83;;;1.90;;
14892;SDS011;7538;53.626;9.906;2023-04-03T02:38:28;4.23;;;1.63;;
14892;SDS011;7538;53.626;9.906;2023-04-03T02:41:00;3.43;;;1.73;;
14892;SDS011;7538;53.626;9.906;2023-04-03T02:43:27;3.60;;;1.53;;
14892;SDS011;7538;53.626;9.906;2023-04-03T02:45:54;5.10;;;1.80;;
14892;SDS011;7538;53.626;9.906;2023-04-03T02:48:21;2.93;;;1.50;;
14892;SDS011;7538;53.626;9.906;2023-04-03T02:50:47;5.47;;;2.20;;
14892;SDS011;7538;53.626;9.906;2023-04-03T02:53:15;3.83;;;1.90;;
14892;SDS011;7538;53.626;9.906;2023-04-03T02:55:42;6.63;;;2.13;;
14892;SDS011;7538;53.626;9.906;2023-04-03T02:58:10;5.37;;;2.20;;
14892;SDS011;7538;53.626;9.906;2023-04-03T03:00:37;6.77;;;2.30;;
14892;SDS011;7538;53.626;9.906;2023-04-03T03:03:04;6.83;;;2.33;;
14892;SDS011;7538;53.626;9.906;2023-04-03T03:05:31;4.17;;;2.10;;
14892;SDS011;7538;53.626;9.906;2023-04-03T03:07:58;3.73;;;1.97;;
14892;SDS011;7538;53.626;9.906;2023-04-03T03:10:25;4.60;;;2.07;;
14892;SDS011;7538;53.626;9.906;2023-04-03T03:12:52;3.90;;;1.90;;
14892;SDS011;7538;53.626;9.906;2023-04-03T03:15:20;4.77;;;2.33;;
14892;SDS011;7538;53.626;9.906;2023-04-03T03:17:46;4.53;;;2.60;;
14892;SDS011;7538;53.626;9.906;2023-04-03T03:20:13;3.93;;;2.73;;
14892;SDS011;7538;53.626;9.906;2023-04-03T03:22:40;9.07;;;2.93;;
14892;SDS011;7538;53.626;9.906;2023-04-03T03:25:08;4.60;;;2.70;;
14892;SDS011;7538;53.626;9.906;2023-04-03T03:27:35;5.57;;;2.50;;
14892;SDS011;7538;53.626;9.906;2023-04-03T03:30:02;8.37;;;3.00;;
14892;SDS011;7538;53.626;9.906;2023-04-03T03:32:31;4.47;;;2.57;;
14892;SDS011;7538;53.626;9.906;2023-04-03T03:34:58;3.50;;;2.20;;
14892;SDS011;7538;53.626;9.906;2023-04-03T03:37:25;5.50;;;2.93;;
14892;SDS011;7538;53.626;9.906;2023-04-03T03:39:52;5.10;;;2.53;;
14892;SDS011;7538;53.626;9.906;2023-04-03T03:42:18;8.80;;;2.80;;
14892;SDS011;7538;53.626;9.906;2023-04-03T03:44:45;4.87;;;2.57;;
14892;SDS011;7538;53.626;9.906;2023-04-03T03:47:12;4.23;;;2.43;;
14892;SDS011;7538;53.626;9.906;2023-04-03T03:49:40;4.60;;;2.80;;
14892;SDS011;7538;53.626;9.906;2023-04-03T03:52:07;4.77;;;2.17;;
14892;SDS011;7538;53.626;9.906;2023-04-03T03:54:35;3.10;;;1.97;;
14892;SDS011;7538;53.626;9.906;2023-04-03T03:57:02;6.23;;;2.70;;
14892;SDS011;7538;53.626;9.906;2023-04-03T03:59:29;3.80;;;2.50;;
14892;SDS011;7538;53.626;9.906;2023-04-03T04:01:56;4.47;;;2.37;;
14892;SDS011;7538;53.626;9.906;2023-04-03T04:04:23;3.33;;;2.23;;
14892;SDS011;7538;53.626;9.906;2023-04-03T04:06:51;4.93;;;2.17;;
14892;SDS011;7538;53.626;9.906;2023-04-03T04:09:18;5.03;;;2.60;;
14892;SDS011;7538;53.626;9.906;2023-04-03T04:11:45;6.73;;;2.73;;
14892;SDS011;7538;53.626;9.906;2023-04-03T04:14:12;5.30;;;2.70;;
14892;SDS011;7538;53.626;9.906;2023-04-03T04:16:38;3.13;;;2.43;;
14892;SDS011;7538;53.626;9.906;2023-04-03T04:19:05;3.67;;;2.13;;
14892;SDS011;7538;53.626;9.906;2023-04-03T04:21:32;4.13;;;2.27;;
14892;SDS011;7538;53.626;9.906;2023-04-03T04:24:01;3.93;;;2.57;;
14892;SDS011;7538;53.626;9.906;2023-04-03T04:26:27;7.87;;;2.67;;
14892;SDS011;7538;53.626;9.906;2023-04-03T04:28:54;3.87;;;2.50;;
14892;SDS011;7538;53.626;9.906;2023-04-03T04:31:21;5.83;;;2.63;;
14892;SDS011;7538;53.626;9.906;2023-04-03T04:33:48;3.97;;;2.67;;
14892;SDS011;7538;53.626;9.906;2023-04-03T04:36:15;5.17;;;2.63;;
14892;SDS011;7538;53.626;9.906;2023-04-03T04:38:42;5.27;;;3.50;;
14892;SDS011;7538;53.626;9.906;2023-04-03T04:41:10;3.30;;;2.50;;
14892;SDS011;7538;53.626;9.906;2023-04-03T04:43:37;7.43;;;3.00;;
14892;SDS011;7538;53.626;9.906;2023-04-03T04:46:04;7.37;;;3.20;;
14892;SDS011;7538;53.626;9.906;2023-04-03T04:48:32;5.80;;;2.63;;
14892;SDS011;7538;53.626;9.906;2023-04-03T04:50:59;4.17;;;2.63;;
14892;SDS011;7538;53.626;9.906;2023-04-03T04:53:26;3.63;;;3.00;;
14892;SDS011;7538;53.626;9.906;2023-04-03T04:55:53;6.53;;;2.90;;
14892;SDS011;7538;53.626;9.906;2023-04-03T04:58:21;4.53;;;3.00;;
14892;SDS011;7538;53.626;9.906;2023-04-03T05:00:48;5.83;;;2.80;;
14892;SDS011;7538;53.626;9.906;2023-04-03T05:03:15;5.77;;;3.20;;
14892;SDS011;7538;53.626;9.906;2023-04-03T05:05:42;5.93;;;3.40;;
14892;SDS011;7538;53.626;9.906;2023-04-03T05:08:08;5.33;;;2.97;;
14892;SDS011;7538;53.626;9.906;2023-04-03T05:10:35;6.27;;;3.60;;
14892;SDS011;7538;53.626;9.906;2023-04-03T05:13:02;4.90;;;3.47;;
14892;SDS011;7538;53.626;9.906;2023-04-03T05:15:30;5.70;;;3.23;;
14892;SDS011;7538;53.626;9.906;2023-04-03T05:17:57;5.53;;;3.10;;
14892;SDS011;7538;53.626;9.906;2023-04-03T05:20:24;7.87;;;3.20;;
14892;SDS011;7538;53.626;9.906;2023-04-03T05:22:50;6.70;;;3.07;;
14892;SDS011;7538;53.626;9.906;2023-04-03T05:25:17;5.73;;;3.20;;
14892;SDS011;7538;53.626;9.906;2023-04-03T05:27:44;7.90;;;3.63;;
14892;SDS011;7538;53.626;9.906;2023-04-03T05:30:11;3.13;;;2.50;;
14892;SDS011;7538;53.626;9.906;2023-04-03T05:32:40;8.50;;;3.40;;
14892;SDS011;7538;53.626;9.906;2023-04-03T05:35:07;4.07;;;3.07;;
14892;SDS011;7538;53.626;9.906;2023-04-03T05:37:35;4.53;;;2.90;;
14892;SDS011;7538;53.626;9.906;2023-04-03T05:40:02;8.70;;;3.90;;
14892;SDS011;7538;53.626;9.906;2023-04-03T05:42:30;6.33;;;4.23;;
14892;SDS011;7538;53.626;9.906;2023-04-03T05:44:56;4.13;;;3.03;;
14892;SDS011;7538;53.626;9.906;2023-04-03T05:47:23;5.83;;;3.33;;
14892;SDS011;7538;53.626;9.906;2023-04-03T05:49:51;5.57;;;3.83;;
14892;SDS011;7538;53.626;9.906;2023-04-03T05:52:20;7.03;;;3.67;;
14892;SDS011;7538;53.626;9.906;2023-04-03T05:54:49;6.87;;;4.13;;
14892;SDS011;7538;53.626;9.906;2023-04-03T05:57:15;6.17;;;4.10;;
14892;SDS011;7538;53.626;9.906;2023-04-03T05:59:43;5.57;;;3.70;;
14892;SDS011;7538;53.626;9.906;2023-04-03T06:02:10;11.23;;;4.30;;
14892;SDS011;7538;53.626;9.906;2023-04-03T06:04:38;4.90;;;2.97;;
14892;SDS011;7538;53.626;9.906;2023-04-03T06:07:07;5.17;;;3.50;;
14892;SDS011;7538;53.626;9.906;2023-04-03T06:09:37;4.93;;;2.80;;
14892;SDS011;7538;53.626;9.906;2023-04-03T06:12:04;5.57;;;3.57;;
14892;SDS011;7538;53.626;9.906;2023-04-03T06:14:31;5.53;;;2.87;;
14892;SDS011;7538;53.626;9.906;2023-04-03T06:16:58;4.60;;;2.93;;
14892;SDS011;7538;53.626;9.906;2023-04-03T06:19:25;5.05;;;3.25;;
14892;SDS011;7538;53.626;9.906;2023-04-03T06:21:52;6.85;;;3.17;;
14892;SDS011;7538;53.626;9.906;2023-04-03T06:24:20;4.53;;;2.85;;
14892;SDS011;7538;53.626;9.906;2023-04-03T06:26:49;6.13;;;2.60;;
14892;SDS011;7538;53.626;9.906;2023-04-03T06:29:16;3.28;;;2.40;;
14892;SDS011;7538;53.626;9.906;2023-04-03T06:31:43;4.50;;;2.45;;
14892;SDS011;7538;53.626;9.906;2023-04-03T06:34:10;7.38;;;3.63;;
14892;SDS011;7538;53.626;9.906;2023-04-03T06:36:37;5.32;;;2.97;;
14892;SDS011;7538;53.626;9.906;2023-04-03T06:39:05;5.55;;;2.97;;
14892;SDS011;7538;53.626;9.906;2023-04-03T06:41:33;4.05;;;2.72;;
14892;SDS011;7538;53.626;9.906;2023-04-03T06:44:00;5.47;;;3.08;;
14892;SDS011;7538;53.626;9.906;2023-04-03T06:46:28;6.38;;;2.70;;
14892;SDS011;7538;53.626;9.906;2023-04-03T06:48:55;4.43;;;3.00;;
14892;SDS011;7538;53.626;9.906;2023-04-03T06:51:22;4.55;;;3.00;;
14892;SDS011;7538;53.626;9.906;2023-04-03T06:53:51;5.32;;;3.00;;
14892;SDS011;7538;53.626;9.906;2023-04-03T06:56:19;5.25;;;3.45;;
14892;SDS011;7538;53.626;9.906;2023-04-03T06:58:48;4.68;;;3.03;;
14892;SDS011;7538;53.626;9.906;2023-04-03T07:01:16;3.92;;;2.42;;
14892;SDS011;7538;53.626;9.906;2023-04-03T07:03:46;4.80;;;2.53;;
14892;SDS011;7538;53.626;9.906;2023-04-03T07:06:14;3.88;;;2.30;;
14892;SDS011;7538;53.626;9.906;2023-04-03T07:08:43;5.38;;;2.30;;
14892;SDS011;7538;53.626;9.906;2023-04-03T07:11:10;4.72;;;2.20;;
14892;SDS011;7538;53.626;9.906;2023-04-03T07:13:38;4.85;;;2.95;;
14892;SDS011;7538;53.626;9.906;2023-04-03T07:16:07;5.60;;;2.28;;
14892;SDS011;7538;53.626;9.906;2023-04-03T07:18:35;4.03;;;2.40;;
14892;SDS011;7538;53.626;9.906;2023-04-03T07:21:01;6.00;;;2.50;;
14892;SDS011;7538;53.626;9.906;2023-04-03T07:23:28;3.63;;;2.00;;
14892;SDS011;7538;53.626;9.906;2023-04-03T07:25:55;3.03;;;2.00;;
14892;SDS011;7538;53.626;9.906;2023-04-03T07:28:22;3.60;;;1.90;;
14892;SDS011;7538;53.626;9.906;2023-04-03T07:30:49;3.28;;;2.00;;
14892;SDS011;7538;53.626;9.906;2023-04-03T07:33:19;3.50;;;1.70;;
14892;SDS011;7538;53.626;9.906;2023-04-03T07:35:48;4.00;;;1.88;;
14892;SDS011;7538;53.626;9.906;2023-04-03T07:38:15;5.28;;;2.20;;
14892;SDS011;7538;53.626;9.906;2023-04-03T07:40:45;4.32;;;1.80;;
14892;SDS011;7538;53.626;9.906;2023-04-03T07:43:13;2.72;;;1.80;;
14892;SDS011;7538;53.626;9.906;2023-04-03T07:45:40;1.88;;;1.40;;
14892;SDS011;7538;53.626;9.906;2023-04-03T07:48:06;3.05;;;1.77;;
14892;SDS011;7538;53.626;9.906;2023-04-03T07:50:35;2.28;;;1.50;;
14892;SDS011;7538;53.626;9.906;2023-04-03T07:53:01;1.67;;;1.23;;
14892;SDS011;7538;53.626;9.906;2023-04-03T07:55:29;2.67;;;1.50;;
14892;SDS011;7538;53.626;9.906;2023-04-03T07:57:55;3.42;;;1.40;;
14892;SDS011;7538;53.626;9.906;2023-04-03T08:00:22;3.75;;;1.40;;
14892;SDS011;7538;53.626;9.906;2023-04-03T08:02:49;2.75;;;1.25;;
14892;SDS011;7538;53.626;9.906;2023-04-03T08:05:16;2.22;;;1.13;;
14892;SDS011;7538;53.626;9.906;2023-04-03T08:07:45;2.30;;;1.23;;
14892;SDS011;7538;53.626;9.906;2023-04-03T08:10:13;3.22;;;1.40;;
14892;SDS011;7538;53.626;9.906;2023-04-03T08:12:40;3.55;;;1.20;;
14892;SDS011;7538;53.626;9.906;2023-04-03T08:15:08;3.58;;;1.40;;
14892;SDS011;7538;53.626;9.906;2023-04-03T08:17:35;2.20;;;1.30;;
14892;SDS011;7538;53.626;9.906;2023-04-03T08:20:03;2.47;;;1.40;;
14892;SDS011;7538;53.626;9.906;2023-04-03T08:22:31;2.00;;;1.30;;
14892;SDS011;7538;53.626;9.906;2023-04-03T08:24:59;2.30;;;1.30;;
14892;SDS011;7538;53.626;9.906;2023-04-03T08:27:27;1.95;;;1.20;;
14892;SDS011;7538;53.626;9.906;2023-04-03T08:29:53;4.70;;;1.42;;
14892;SDS011;7538;53.626;9.906;2023-04-03T08:32:20;2.00;;;1.30;;
14892;SDS011;7538;53.626;9.906;2023-04-03T08:34:48;2.45;;;1.20;;
14892;SDS011;7538;53.626;9.906;2023-04-03T08:37:14;2.38;;;1.08;;
14892;SDS011;7538;53.626;9.906;2023-04-03T08:39:42;3.22;;;1.30;;
14892;SDS011;7538;53.626;9.906;2023-04-03T08:42:14;3.88;;;1.40;;
14892;SDS011;7538;53.626;9.906;2023-04-03T08:44:46;4.30;;;1.40;;
14892;SDS011;7538;53.626;9.906;2023-04-03T08:47:20;5.32;;;1.45;;
14892;SDS011;7538;53.626;9.906;2023-04-03T08:49:51;2.38;;;1.25;;
14892;SDS011;7538;53.626;9.906;2023-04-03T08:52:22;2.53;;;1.20;;
14892;SDS011;7538;53.626;9.906;2023-04-03T08:54:55;2.05;;;1.33;;
14892;SDS011;7538;53.626;9.906;2023-04-03T08:57:28;5.20;;;1.50;;
14892;SDS011;7538;53.626;9.906;2023-04-03T08:59:57;2.92;;;1.60;;
14892;SDS011;7538;53.626;9.906;2023-04-03T09:02:28;3.00;;;1.15;;
14892;SDS011;7538;53.626;9.906;2023-04-03T09:04:58;2.90;;;1.10;;
14892;SDS011;7538;53.626;9.906;2023-04-03T09:07:30;3.13;;;1.30;;
14892;SDS011;7538;53.626;9.906;2023-04-03T09:10:05;3.13;;;1.42;;
14892;SDS011;7538;53.626;9.906;2023-04-03T09:12:37;2.88;;;1.40;;
14892;SDS011;7538;53.626;9.906;2023-04-03T09:15:10;2.65;;;1.33;;
14892;SDS011;7538;53.626;9.906;2023-04-03T09:17:46;2.20;;;1.30;;
14892;SDS011;7538;53.626;9.906;2023-04-03T09:20:24;2.90;;;1.20;;
14892;SDS011;7538;53.626;9.906;2023-04-03T09:22:54;1.55;;;1.00;;
14892;SDS011;7538;53.626;9.906;2023-04-03T09:25:22;3.13;;;1.50;;
14892;SDS011;7538;53.626;9.906;2023-04-03T09:27:52;2.03;;;1.13;;
14892;SDS011;7538;53.626;9.906;2023-04-03T09:30:20;2.00;;;1.20;;
14892;SDS011;7538;53.626;9.906;2023-04-03T09:32:49;3.00;;;1.10;;
14892;SDS011;7538;53.626;9.906;2023-04-03T09:35:19;3.95;;;1.52;;
14892;SDS011;7538;53.626;9.906;2023-04-03T09:37:49;2.50;;;1.33;;
14892;SDS011;7538;53.626;9.906;2023-04-03T09:40:28;2.28;;;1.02;;
14892;SDS011;7538;53.626;9.906;2023-04-03T09:43:02;2.08;;;1.27;;
14892;SDS011;7538;53.626;9.906;2023-04-03T09:45:45;1.75;;;1.13;;
14892;SDS011;7538;53.626;9.906;2023-04-03T09:48:15;2.25;;;1.20;;
14892;SDS011;7538;53.626;9.906;2023-04-03T09:50:54;3.42;;;1.10;;
14892;SDS011;7538;53.626;9.906;2023-04-03T09:53:31;2.90;;;1.20;;
14892;SDS011;7538;53.626;9.906;2023-04-03T09:56:02;2.05;;;1.05;;
14892;SDS011;7538;53.626;9.906;2023-04-03T09:58:32;4.32;;;1.13;;
14892;SDS011;7538;53.626;9.906;2023-04-03T10:01:04;1.88;;;1.23;;
14892;SDS011;7538;53.626;9.906;2023-04-03T10:03:32;3.83;;;1.33;;
14892;SDS011;7538;53.626;9.906;2023-04-03T10:06:01;1.73;;;1.05;;
14892;SDS011;7538;53.626;9.906;2023-04-03T10:08:29;2.17;;;1.20;;
14892;SDS011;7538;53.626;9.906;2023-04-03T10:11:05;2.92;;;1.20;;
14892;SDS011;7538;53.626;9.906;2023-04-03T10:13:50;1.75;;;1.20;;
14892;SDS011;7538;53.626;9.906;2023-04-03T10:16:18;3.63;;;1.40;;
14892;SDS011;7538;53.626;9.906;2023-04-03T10:18:49;2.42;;;1.10;;
14892;SDS011;7538;53.626;9.906;2023-04-03T10:21:29;2.03;;;1.05;;
14892;SDS011;7538;53.626;9.906;2023-04-03T10:24:03;3.83;;;1.20;;
14892;SDS011;7538;53.626;9.906;2023-04-03T10:26:38;2.35;;;1.30;;
14892;SDS011;7538;53.626;9.906;2023-04-03T10:29:14;4.63;;;1.35;;
14892;SDS011;7538;53.626;9.906;2023-04-03T10:31:49;3.30;;;1.40;;
14892;SDS011;7538;53.626;9.906;2023-04-03T10:34:23;4.22;;;2.00;;
14892;SDS011;7538;53.626;9.906;2023-04-03T10:36:56;1.30;;;0.90;;
14892;SDS011;7538;53.626;9.906;2023-04-03T10:39:33;3.72;;;1.30;;
14892;SDS011;7538;53.626;9.906;2023-04-03T10:42:08;1.92;;;1.27;;
14892;SDS011;7538;53.626;9.906;2023-04-03T10:44:46;1.52;;;1.13;;
14892;SDS011;7538;53.626;9.906;2023-04-03T10:47:27;1.90;;;1.17;;
14892;SDS011;7538;53.626;9.906;2023-04-03T10:50:01;2.20;;;1.23;;
14892;SDS011;7538;53.626;9.906;2023-04-03T10:52:39;4.07;;;1.42;;
14892;SDS011;7538;53.626;9.906;2023-04-03T10:55:15;1.88;;;1.25;;
14892;SDS011;7538;53.626;9.906;2023-04-03T10:57:50;3.35;;;1.40;;
14892;SDS011;7538;53.626;9.906;2023-04-03T11:00:22;4.30;;;1.27;;
14892;SDS011;7538;53.626;9.906;2023-04-03T11:02:55;3.75;;;1.30;;
14892;SDS011;7538;53.626;9.906;2023-04-03T11:05:26;3.30;;;1.50;;
14892;SDS011;7538;53.626;9.906;2023-04-03T11:07:59;3.10;;;1.40;;
14892;SDS011;7538;53.626;9.906;2023-04-03T11:10:35;2.90;;;1.23;;
14892;SDS011;7538;53.626;9.906;2023-04-03T11:13:07;3.28;;;1.10;;
14892;SDS011;7538;53.626;9.906;2023-04-03T11:15:41;2.55;;;1.20;;
14892;SDS011;7538;53.626;9.906;2023-04-03T11:18:09;3.75;;;1.48;;
14892;SDS011;7538;53.626;9.906;2023-04-03T11:20:41;2.33;;;1.27;;
14892;SDS011;7538;53.626;9.906;2023-04-03T11:23:15;2.05;;;1.15;;
14892;SDS011;7538;53.626;9.906;2023-04-03T11:25:47;1.95;;;1.38;;
14892;SDS011;7538;53.626;9.906;2023-04-03T11:28:18;3.97;;;1.38;;
14892;SDS011;7538;53.626;9.906;2023-04-03T11:30:47;2.88;;;1.30;;
14892;SDS011;7538;53.626;9.906;2023-04-03T11:33:21;1.58;;;1.30;;
14892;SDS011;7538;53.626;9.906;2023-04-03T11:35:58;2.33;;;1.67;;
14892;SDS011;7538;53.626;9.906;2023-04-03T11:38:28;2.20;;;1.10;;
14892;SDS011;7538;53.626;9.906;2023-04-03T11:41:01;2.05;;;1.20;;
14892;SDS011;7538;53.626;9.906;2023-04-03T11:43:29;3.67;;;1.55;;
14892;SDS011;7538;53.626;9.906;2023-04-03T11:45:58;3.60;;;1.25;;
14892;SDS011;7538;53.626;9.906;2023-04-03T11:48:44;2.17;;;1.38;;
14892;SDS011;7538;53.626;9.906;2023-04-03T11:51:38;2.65;;;1.55;;
14892;SDS011;7538;53.626;9.906;2023-04-03T11:57:10;1.65;;;0.93;;
14892;SDS011;7538;53.626;9.906;2023-04-03T12:03:55;3.05;;;1.33;;
14892;SDS011;7538;53.626;9.906;2023-04-03T12:12:29;3.03;;;1.52;;
14892;SDS011;7538;53.626;9.906;2023-04-03T12:15:11;2.70;;;1.10;;
14892;SDS011;7538;53.626;9.906;2023-04-03T12:17:47;1.75;;;1.10;;
14892;SDS011;7538;53.626;9.906;2023-04-03T12:23:29;2.90;;;1.10;;
14892;SDS011;7538;53.626;9.906;2023-04-03T12:26:02;2.05;;;1.25;;
14892;SDS011;7538;53.626;9.906;2023-04-03T12:28:46;1.98;;;1.30;;
14892;SDS011;7538;53.626;9.906;2023-04-03T12:31:17;2.15;;;1.20;;
14892;SDS011;7538;53.626;9.906;2023-04-03T12:33:52;4.90;;;1.20;;
14892;SDS011;7538;53.626;9.906;2023-04-03T12:36:33;2.73;;;1.10;;
14892;SDS011;7538;53.626;9.906;2023-04-03T12:39:13;1.38;;;1.15;;
14892;SDS011;7538;53.626;9.906;2023-04-03T12:42:22;3.42;;;1.08;;
14892;SDS011;7538;53.626;9.906;2023-04-03T12:44:59;2.00;;;1.20;;
14892;SDS011;7538;53.626;9.906;2023-04-03T12:47:36;3.33;;;1.00;;
14892;SDS011;7538;53.626;9.906;2023-04-03T12:50:13;2.78;;;1.13;;
14892;SDS011;7538;53.626;9.906;2023-04-03T12:52:45;1.40;;;1.08;;
14892;SDS011;7538;53.626;9.906;2023-04-03T12:55:19;2.63;;;1.08;;
14892;SDS011;7538;53.626;9.906;2023-04-03T12:57:46;1.48;;;1.25;;
14892;SDS011;7538;53.626;9.906;2023-04-03T13:03:05;1.30;;;1.20;;
14892;SDS011;7538;53.626;9.906;2023-04-03T13:05:44;4.38;;;1.20;;
14892;SDS011;7538;53.626;9.906;2023-04-03T13:08:12;3.43;;;1.20;;
14892;SDS011;7538;53.626;9.906;2023-04-03T13:10:44;3.07;;;1.60;;
14892;SDS011;7538;53.626;9.906;2023-04-03T13:13:18;2.10;;;1.37;;
14892;SDS011;7538;53.626;9.906;2023-04-03T13:15:45;3.23;;;1.10;;
14892;SDS011;7538;53.626;9.906;2023-04-03T13:18:25;1.77;;;1.10;;
14892;SDS011;7538;53.626;9.906;2023-04-03T13:20:56;2.80;;;1.20;;
14892;SDS011;7538;53.626;9.906;2023-04-03T13:23:26;3.97;;;1.10;;
14892;SDS011;7538;53.626;9.906;2023-04-03T13:25:55;2.53;;;1.20;;
14892;SDS011;7538;53.626;9.906;2023-04-03T13:28:26;1.98;;;1.23;;
14892;SDS011;7538;53.626;9.906;2023-04-03T13:31:01;3.22;;;1.42;;
14892;SDS011;7538;53.626;9.906;2023-04-03T13:33:32;3.35;;;1.10;;
14892;SDS011;7538;53.626;9.906;2023-04-03T13:36:04;2.00;;;1.17;;
14892;SDS011;7538;53.626;9.906;2023-04-03T13:38:32;2.40;;;1.10;;
14892;SDS011;7538;53.626;9.906;2023-04-03T13:41:04;1.97;;;1.20;;
14892;SDS011;7538;53.626;9.906;2023-04-03T13:43:47;1.90;;;1.20;;
14892;SDS011;7538;53.626;9.906;2023-04-03T13:46:22;2.90;;;1.20;;
14892;SDS011;7538;53.626;9.906;2023-04-03T13:48:51;1.63;;;1.20;;
14892;SDS011;7538;53.626;9.906;2023-04-03T13:51:20;2.45;;;1.20;;
14892;SDS011;7538;53.626;9.906;2023-04-03T13:53:50;1.65;;;1.15;;
14892;SDS011;7538;53.626;9.906;2023-04-03T13:56:31;3.07;;;1.27;;
14892;SDS011;7538;53.626;9.906;2023-04-03T13:59:18;3.53;;;1.08;;
14892;SDS011;7538;53.626;9.906;2023-04-03T14:01:51;3.23;;;1.60;;
14892;SDS011;7538;53.626;9.906;2023-04-03T14:04:21;3.23;;;1.40;;
14892;SDS011;7538;53.626;9.906;2023-04-03T14:06:49;2.90;;;1.33;;
14892;SDS011;7538;53.626;9.906;2023-04-03T14:09:17;2.43;;;1.40;;
14892;SDS011;7538;53.626;9.906;2023-04-03T14:11:47;3.43;;;1.73;;
14892;SDS011;7538;53.626;9.906;2023-04-03T14:14:17;7.87;;;1.57;;
14892;SDS011;7538;53.626;9.906;2023-04-03T14:16:47;3.53;;;1.63;;
14892;SDS011;7538;53.626;9.906;2023-04-03T14:19:19;3.47;;;1.50;;
14892;SDS011;7538;53.626;9.906;2023-04-03T14:21:48;2.58;;;1.60;;
14892;SDS011;7538;53.626;9.906;2023-04-03T14:24:16;3.33;;;1.33;;
14892;SDS011;7538;53.626;9.906;2023-04-03T14:26:44;3.27;;;1.10;;
14892;SDS011;7538;53.626;9.906;2023-04-03T14:29:13;2.17;;;1.30;;
14892;SDS011;7538;53.626;9.906;2023-04-03T14:31:41;3.25;;;1.85;;
14892;SDS011;7538;53.626;9.906;2023-04-03T14:34:09;2.50;;;1.30;;
14892;SDS011;7538;53.626;9.906;2023-04-03T14:36:36;2.50;;;1.38;;
14892;SDS011;7538;53.626;9.906;2023-04-03T14:39:03;3.10;;;1.30;;
14892;SDS011;7538;53.626;9.906;2023-04-03T14:41:34;2.47;;;1.30;;
14892;SDS011;7538;53.626;9.906;2023-04-03T14:44:01;4.70;;;1.60;;
14892;SDS011;7538;53.626;9.906;2023-04-03T14:46:31;5.97;;;2.07;;
14892;SDS011;7538;53.626;9.906;2023-04-03T14:49:01;4.00;;;1.30;;
14892;SDS011;7538;53.626;9.906;2023-04-03T14:51:32;4.30;;;1.10;;
14892;SDS011;7538;53.626;9.906;2023-04-03T14:54:00;2.87;;;1.17;;
14892;SDS011;7538;53.626;9.906;2023-04-03T14:56:27;4.33;;;1.30;;
14892;SDS011;7538;53.626;9.906;2023-04-03T14:58:55;3.70;;;1.60;;
14892;SDS011;7538;53.626;9.906;2023-04-03T15:01:23;3.20;;;1.60;;
14892;SDS011;7538;53.626;9.906;2023-04-03T15:03:52;3.83;;;1.40;;
14892;SDS011;7538;53.626;9.906;2023-04-03T15:06:19;2.47;;;1.57;;
14892;SDS011;7538;53.626;9.906;2023-04-03T15:08:46;2.03;;;1.40;;
14892;SDS011;7538;53.626;9.906;2023-04-03T15:11:14;2.80;;;1.20;;
14892;SDS011;7538;53.626;9.906;2023-04-03T15:13:41;3.10;;;1.53;;
14892;SDS011;7538;53.626;9.906;2023-04-03T15:16:11;5.63;;;1.70;;
14892;SDS011;7538;53.626;9.906;2023-04-03T15:18:41;2.10;;;1.37;;
14892;SDS011;7538;53.626;9.906;2023-04-03T15:21:09;2.30;;;1.20;;
14892;SDS011;7538;53.626;9.906;2023-04-03T15:23:36;2.23;;;1.10;;
14892;SDS011;7538;53.626;9.906;2023-04-03T15:26:03;3.37;;;1.40;;
14892;SDS011;7538;53.626;9.906;2023-04-03T15:28:31;3.77;;;1.70;;
14892;SDS011;7538;53.626;9.906;2023-04-03T15:31:01;2.38;;;1.35;;
14892;SDS011;7538;53.626;9.906;2023-04-03T15:33:28;3.27;;;1.47;;
14892;SDS011;7538;53.626;9.906;2023-04-03T15:35:55;4.57;;;1.70;;